Time;durP1;ratioP1;P1;durP2;ratioP2;P2;SDS_P1;SDS_P2;PMS_P1;PMS_P2;Temp;Humidity;BMP_temperature;BMP_pressure;BME280_temperature;BME280_humidity;BME280_pressure;Samples;Min_cycle;Max_cycle;Signal;HPM_P1;HPM_P2
2023/06/14 00:01:05;;;;;;;4.55;3.20;;;15.00;78.70;;;;;;5073457;28;20221;-60
2023/06/14 00:03:32;;;;;;;3.90;2.70;;;14.90;79.70;;;;;;5073688;28;20277;-60
2023/06/14 00:05:59;;;;;;;3.58;2.95;;;14.90;79.40;;;;;;5073422;28;20265;-60
2023/06/14 00:08:26;;;;;;;4.17;3.50;;;14.80;79.80;;;;;;5073398;28;20563;-60
2023/06/14 00:10:54;;;;;;;8.23;3.10;;;14.70;80.40;;;;;;5073480;28;20209;-60
2023/06/14 00:13:21;;;;;;;3.75;2.90;;;14.70;80.70;;;;;;5073775;28;20300;-60
2023/06/14 00:15:48;;;;;;;7.00;2.75;;;14.70;80.50;;;;;;5072991;28;20595;-60
2023/06/14 00:18:16;;;;;;;3.85;3.00;;;14.70;80.30;;;;;;5073452;28;20475;-60
2023/06/14 00:20:43;;;;;;;4.45;3.08;;;14.70;80.10;;;;;;5072901;28;20201;-59
2023/06/14 00:23:10;;;;;;;3.60;2.95;;;14.80;80.10;;;;;;5073248;28;20666;-60
2023/06/14 00:25:37;;;;;;;4.10;3.00;;;14.80;80.60;;;;;;5072913;28;20303;-60
2023/06/14 00:28:05;;;;;;;4.95;3.10;;;14.60;80.90;;;;;;5073329;28;20209;-60
2023/06/14 00:30:32;;;;;;;4.53;3.03;;;14.60;81.20;;;;;;5073069;28;20216;-60
2023/06/14 00:32:59;;;;;;;3.95;2.97;;;14.60;81.60;;;;;;5072815;28;20229;-61
2023/06/14 00:35:26;;;;;;;4.78;2.95;;;14.50;81.70;;;;;;5073102;28;20228;-59
2023/06/14 00:37:54;;;;;;;3.22;2.65;;;14.50;82.10;;;;;;5073094;28;20201;-61
2023/06/14 00:40:21;;;;;;;5.40;3.20;;;14.40;83.30;;;;;;5073264;28;20290;-60
2023/06/14 00:42:48;;;;;;;4.13;2.97;;;14.30;83.10;;;;;;5073021;28;20224;-60
2023/06/14 00:45:16;;;;;;;5.53;2.80;;;14.40;83.30;;;;;;5073184;28;20201;-60
2023/06/14 00:47:44;;;;;;;4.40;2.40;;;14.30;83.20;;;;;;5073076;28;20209;-60
2023/06/14 00:50:11;;;;;;;4.40;3.10;;;14.30;83.20;;;;;;5072929;28;20266;-60
2023/06/14 00:52:38;;;;;;;4.30;2.90;;;14.20;83.50;;;;;;5072810;28;20950;-60
2023/06/14 00:55:05;;;;;;;3.43;2.80;;;14.20;83.90;;;;;;5073032;28;20228;-60
2023/06/14 00:57:32;;;;;;;5.10;2.70;;;14.20;84.00;;;;;;5072143;28;20650;-59
2023/06/14 00:59:59;;;;;;;3.47;2.80;;;14.20;83.60;;;;;;5072489;28;20255;-60
2023/06/14 01:02:27;;;;;;;4.77;3.00;;;14.30;83.10;;;;;;5072227;28;20546;-59
2023/06/14 01:04:55;;;;;;;3.80;3.00;;;14.30;83.00;;;;;;5072439;28;20208;-59
2023/06/14 01:07:36;;;;;;;3.63;2.70;;;14.30;83.40;;;;;;5072184;28;20223;-60
2023/06/14 01:10:17;;;;;;;4.40;3.10;;;14.30;83.30;;;;;;5072492;28;20212;-59
2023/06/14 01:12:51;;;;;;;2.97;2.67;;;14.30;83.50;;;;;;5072313;28;20225;-59
2023/06/14 01:15:18;;;;;;;4.47;3.00;;;14.30;83.70;;;;;;5072107;28;20209;-60
2023/06/14 01:17:51;;;;;;;5.33;2.77;;;14.30;83.80;;;;;;5072039;28;20283;-60
2023/06/14 01:20:20;;;;;;;4.97;3.30;;;14.10;84.40;;;;;;5072123;28;20213;-60
2023/06/14 01:22:52;;;;;;;4.87;2.93;;;14.00;84.80;;;;;;5104705;22;20434;-62
2023/06/14 01:25:20;;;;;;;4.60;2.90;;;14.00;84.60;;;;;;5087664;28;20291;-62
2023/06/14 01:27:49;;;;;;;3.33;2.80;;;14.00;84.40;;;;;;5091526;28;20290;-62
2023/06/14 01:30:16;;;;;;;3.63;2.73;;;14.10;84.20;;;;;;5091892;28;20210;-61
2023/06/14 01:32:43;;;;;;;4.73;3.20;;;14.00;84.50;;;;;;5091788;28;20304;-61
2023/06/14 01:35:10;;;;;;;3.10;2.80;;;14.00;84.60;;;;;;5091502;28;20295;-60
2023/06/14 01:37:37;;;;;;;5.20;3.20;;;14.00;84.50;;;;;;5091346;28;20235;-60
2023/06/14 01:40:08;;;;;;;7.23;3.33;;;14.00;84.30;;;;;;5091346;28;20208;-61
2023/06/14 01:42:37;;;;;;;3.37;2.60;;;14.00;84.10;;;;;;5091630;28;20220;-61
2023/06/14 01:45:06;;;;;;;5.00;3.10;;;14.20;83.80;;;;;;5091289;28;20261;-61
2023/06/14 01:47:34;;;;;;;4.10;3.13;;;14.40;83.30;;;;;;5091128;28;20207;-61
2023/06/14 01:50:00;;;;;;;5.53;3.10;;;14.40;83.00;;;;;;5091328;28;20212;-61
2023/06/14 01:52:27;;;;;;;5.50;3.37;;;14.50;83.00;;;;;;5091115;28;20228;-62
2023/06/14 01:54:54;;;;;;;4.57;2.93;;;14.60;83.50;;;;;;5091098;28;20645;-61
2023/06/14 01:57:22;;;;;;;4.97;3.37;;;14.50;83.60;;;;;;5091167;28;20232;-61
2023/06/14 01:59:49;;;;;;;6.03;3.13;;;14.50;84.00;;;;;;5091327;28;20586;-61
2023/06/14 02:02:16;;;;;;;4.70;3.30;;;14.40;84.20;;;;;;5091056;28;20255;-61
2023/06/14 02:04:43;;;;;;;4.55;3.25;;;14.40;84.40;;;;;;5091082;28;20572;-61
2023/06/14 02:07:09;;;;;;;4.40;3.37;;;14.40;84.50;;;;;;5090680;28;20598;-62
2023/06/14 02:09:36;;;;;;;4.23;3.20;;;14.30;85.10;;;;;;5091382;28;20635;-61
2023/06/14 02:12:03;;;;;;;5.40;3.40;;;14.20;85.70;;;;;;5091172;28;20220;-61
2023/06/14 02:14:31;;;;;;;4.97;3.50;;;14.20;86.10;;;;;;5091077;28;20293;-61
2023/06/14 02:16:58;;;;;;;4.97;3.40;;;14.10;86.40;;;;;;5090599;28;20239;-60
2023/06/14 02:19:25;;;;;;;5.37;3.67;;;14.10;87.40;;;;;;5090815;28;20219;-61
2023/06/14 02:21:51;;;;;;;5.33;3.60;;;14.10;87.30;;;;;;5090929;28;20231;-61
2023/06/14 02:24:18;;;;;;;4.60;3.67;;;14.00;87.60;;;;;;5090919;28;20208;-61
2023/06/14 02:26:45;;;;;;;4.87;3.27;;;14.00;87.60;;;;;;5090737;28;20254;-61
2023/06/14 02:29:14;;;;;;;4.73;3.90;;;14.00;88.10;;;;;;5090749;28;20218;-61
2023/06/14 02:31:42;;;;;;;7.83;3.87;;;13.90;88.30;;;;;;5090756;28;20232;-61
2023/06/14 02:34:09;;;;;;;5.03;3.70;;;13.90;88.70;;;;;;5090813;28;20215;-61
2023/06/14 02:36:41;;;;;;;5.67;3.50;;;13.90;89.20;;;;;;5090601;28;20314;-61
2023/06/14 02:39:09;;;;;;;6.83;3.73;;;13.80;89.70;;;;;;5090741;28;20236;-61
2023/06/14 02:41:36;;;;;;;3.37;3.00;;;13.70;90.40;;;;;;5090832;28;20220;-61
2023/06/14 02:44:02;;;;;;;3.97;3.20;;;13.60;90.40;;;;;;5090699;28;20208;-62
2023/06/14 02:46:29;;;;;;;5.37;3.50;;;13.60;90.60;;;;;;5090601;28;20200;-62
2023/06/14 02:48:57;;;;;;;4.27;3.63;;;13.60;90.90;;;;;;5094345;28;20275;-62
2023/06/14 02:51:24;;;;;;;4.07;3.30;;;13.60;90.90;;;;;;5094709;28;20315;-61
2023/06/14 02:53:51;;;;;;;5.50;4.00;;;13.60;90.90;;;;;;5094575;28;20796;-60
2023/06/14 02:56:19;;;;;;;3.77;3.37;;;13.50;91.00;;;;;;5094092;28;20337;-60
2023/06/14 02:58:46;;;;;;;4.30;3.53;;;13.50;91.70;;;;;;5094422;28;20582;-61
2023/06/14 03:01:13;;;;;;;5.23;3.47;;;13.60;91.80;;;;;;5094265;28;20693;-61
2023/06/14 03:03:40;;;;;;;7.43;3.43;;;13.60;92.10;;;;;;5094536;28;20625;-62
2023/06/14 03:06:09;;;;;;;3.73;3.13;;;13.60;92.30;;;;;;5093737;28;20200;-61
2023/06/14 03:08:39;;;;;;;4.60;3.50;;;13.60;92.30;;;;;;5094554;28;20228;-61
2023/06/14 03:11:06;;;;;;;4.63;3.20;;;13.60;92.20;;;;;;5094177;28;20343;-60
2023/06/14 03:13:33;;;;;;;3.57;3.20;;;13.60;92.20;;;;;;5094148;28;20312;-61
2023/06/14 03:16:02;;;;;;;6.10;4.50;;;13.60;92.10;;;;;;5093787;28;20684;-62
2023/06/14 03:18:30;;;;;;;7.50;3.47;;;13.60;92.00;;;;;;5094344;28;20219;-61
2023/06/14 03:20:57;;;;;;;6.40;4.93;;;13.60;92.00;;;;;;5093979;28;20622;-62
2023/06/14 03:23:26;;;;;;;5.03;3.33;;;13.70;92.00;;;;;;5094266;28;20273;-60
2023/06/14 03:25:53;;;;;;;3.80;3.40;;;13.70;92.40;;;;;;5093904;28;20303;-60
2023/06/14 03:28:19;;;;;;;3.93;3.23;;;13.60;92.60;;;;;;5093711;28;20205;-61
2023/06/14 03:30:46;;;;;;;6.50;3.90;;;13.60;92.70;;;;;;5093978;28;20323;-61
2023/06/14 03:33:13;;;;;;;5.93;4.00;;;13.60;92.80;;;;;;5094191;28;20231;-61
2023/06/14 03:35:40;;;;;;;7.43;4.20;;;13.70;93.40;;;;;;5093720;28;20212;-61
2023/06/14 03:38:06;;;;;;;4.83;3.50;;;13.70;94.00;;;;;;5094039;28;20224;-60
2023/06/14 03:40:34;;;;;;;5.43;3.67;;;13.70;94.30;;;;;;5093846;28;20204;-61
2023/06/14 03:43:01;;;;;;;3.73;3.33;;;13.70;94.50;;;;;;5093220;28;20228;-61
2023/06/14 03:45:28;;;;;;;4.23;3.67;;;13.80;94.50;;;;;;5093534;28;20231;-61
2023/06/14 03:47:56;;;;;;;5.60;3.70;;;13.80;94.40;;;;;;5093051;28;20590;-61
2023/06/14 03:50:23;;;;;;;6.63;3.63;;;13.80;94.40;;;;;;5093952;28;20211;-61
2023/06/14 03:52:50;;;;;;;6.60;4.20;;;13.80;94.40;;;;;;5093509;28;20220;-61
2023/06/14 03:55:17;;;;;;;6.50;3.77;;;13.80;94.50;;;;;;5093106;28;20208;-61
2023/06/14 03:57:45;;;;;;;5.57;3.50;;;13.70;94.80;;;;;;5092726;28;20227;-60
2023/06/14 04:00:13;;;;;;;7.67;3.63;;;13.70;94.80;;;;;;5092066;28;20208;-61
2023/06/14 04:02:39;;;;;;;5.77;3.47;;;13.60;94.90;;;;;;5093357;28;20232;-61
2023/06/14 04:05:08;;;;;;;5.87;3.73;;;13.60;95.10;;;;;;5093254;28;20241;-61
2023/06/14 04:07:39;;;;;;;4.43;3.57;;;13.50;95.10;;;;;;5093135;28;20285;-62
2023/06/14 04:10:07;;;;;;;11.43;3.83;;;13.50;95.30;;;;;;5093147;28;20682;-62
2023/06/14 04:12:34;;;;;;;4.23;3.80;;;13.60;95.40;;;;;;5092987;28;20228;-60
2023/06/14 04:15:02;;;;;;;3.73;3.33;;;13.60;95.50;;;;;;5093180;28;20700;-62
2023/06/14 04:17:29;;;;;;;5.43;3.70;;;13.60;95.70;;;;;;5092752;28;20221;-61
2023/06/14 04:19:58;;;;;;;4.50;3.57;;;13.60;95.80;;;;;;5093102;28;20204;-61
2023/06/14 04:22:28;;;;;;;3.60;3.30;;;13.60;95.70;;;;;;5092560;28;20232;-61
2023/06/14 04:24:55;;;;;;;5.80;3.80;;;13.70;95.70;;;;;;5093100;28;20222;-61
2023/06/14 04:27:24;;;;;;;8.77;3.70;;;13.60;95.70;;;;;;5092876;28;20215;-61
2023/06/14 04:29:56;;;;;;;7.23;3.53;;;13.70;95.70;;;;;;5093176;28;20231;-61
2023/06/14 04:32:25;;;;;;;3.90;3.23;;;13.70;95.80;;;;;;5092586;28;20705;-60
2023/06/14 04:34:53;;;;;;;4.70;3.50;;;13.80;95.70;;;;;;5092427;28;20697;-61
2023/06/14 04:37:21;;;;;;;4.13;3.30;;;13.80;95.70;;;;;;5092754;28;20224;-61
2023/06/14 04:39:47;;;;;;;3.70;3.30;;;13.90;95.60;;;;;;5092735;28;20655;-62
2023/06/14 04:42:16;;;;;;;3.80;3.47;;;14.00;95.70;;;;;;5092553;28;20644;-61
2023/06/14 04:44:43;;;;;;;9.17;4.10;;;14.10;95.40;;;;;;5092483;28;20304;-62
2023/06/14 04:47:11;;;;;;;8.07;3.73;;;14.70;95.20;;;;;;5092366;28;20292;-61
2023/06/14 04:49:39;;;;;;;7.20;3.88;;;16.00;93.60;;;;;;5092301;28;20204;-61
2023/06/14 04:52:07;;;;;;;4.70;3.70;;;17.70;90.40;;;;;;5092639;28;20224;-63
2023/06/14 04:54:36;;;;;;;5.28;3.50;;;19.50;84.50;;;;;;5092434;28;20273;-62
2023/06/14 04:57:03;;;;;;;4.63;3.25;;;21.40;77.70;;;;;;5092402;28;20220;-62
2023/06/14 04:59:33;;;;;;;5.97;3.90;;;22.90;71.20;;;;;;5092289;28;20304;-62
2023/06/14 05:02:00;;;;;;;6.10;3.70;;;24.20;65.50;;;;;;5092168;28;20224;-62
2023/06/14 05:04:27;;;;;;;6.68;3.42;;;25.30;62.20;;;;;;5092267;28;20204;-62
2023/06/14 05:06:56;;;;;;;4.60;3.40;;;26.30;59.00;;;;;;5091841;28;20196;-62
2023/06/14 05:09:23;;;;;;;3.75;3.33;;;27.10;56.90;;;;;;5092017;28;20242;-62
2023/06/14 05:11:50;;;;;;;4.28;3.30;;;27.80;54.90;;;;;;5091589;28;20235;-62
2023/06/14 05:14:17;;;;;;;5.85;3.47;;;28.40;53.60;;;;;;5091805;28;20263;-63
2023/06/14 05:16:44;;;;;;;5.07;3.05;;;29.10;51.60;;;;;;5091219;28;20262;-62
2023/06/14 05:19:11;;;;;;;6.07;3.90;;;29.60;50.70;;;;;;5091782;28;20314;-64
2023/06/14 05:21:37;;;;;;;5.25;3.70;;;29.90;49.80;;;;;;5091820;28;20744;-62
2023/06/14 05:24:06;;;;;;;6.70;3.72;;;30.20;48.90;;;;;;5091919;28;20204;-63
2023/06/14 05:26:33;;;;;;;7.68;3.78;;;30.50;48.10;;;;;;5091473;28;20243;-61
2023/06/14 05:29:01;;;;;;;6.28;3.80;;;29.50;49.10;;;;;;5091593;28;20232;-61
2023/06/14 05:31:28;;;;;;;6.13;3.50;;;29.10;49.20;;;;;;5091585;28;20231;-61
2023/06/14 05:33:55;;;;;;;5.38;3.50;;;29.40;49.60;;;;;;5091633;28;20299;-61
2023/06/14 05:36:22;;;;;;;7.22;3.30;;;30.20;49.20;;;;;;5091236;28;20597;-62
2023/06/14 05:38:48;;;;;;;4.22;3.78;;;31.20;47.60;;;;;;5091539;28;20235;-62
2023/06/14 05:41:17;;;;;;;9.18;5.68;;;32.30;45.70;;;;;;5091427;28;20212;-62
2023/06/14 05:43:43;;;;;;;3.60;3.30;;;32.70;45.70;;;;;;5091511;28;20232;-63
2023/06/14 05:46:10;;;;;;;8.35;3.78;;;33.60;44.60;;;;;;5091297;28;20213;-62
2023/06/14 05:48:37;;;;;;;4.60;3.90;;;34.40;43.20;;;;;;5091429;28;20524;-63
2023/06/14 05:51:04;;;;;;;4.85;3.60;;;35.00;42.20;;;;;;5091638;28;20301;-63
2023/06/14 05:53:30;;;;;;;5.53;3.83;;;35.20;41.80;;;;;;5091448;28;20258;-63
2023/06/14 05:55:57;;;;;;;5.85;3.72;;;35.30;42.00;;;;;;5090938;28;20660;-63
2023/06/14 05:58:25;;;;;;;4.43;3.95;;;35.70;41.30;;;;;;5091206;28;20224;-63
2023/06/14 06:00:53;;;;;;;8.68;3.88;;;36.20;40.30;;;;;;5091251;28;20654;-63
2023/06/14 06:03:20;;;;;;;6.70;3.67;;;36.80;40.10;;;;;;5091256;28;20266;-63
2023/06/14 06:05:47;;;;;;;5.00;3.25;;;37.50;38.90;;;;;;5091325;28;20204;-63
2023/06/14 06:08:16;;;;;;;4.68;3.50;;;38.00;38.80;;;;;;5091408;28;20661;-61
2023/06/14 06:10:43;;;;;;;8.38;3.80;;;38.70;38.00;;;;;;5091287;28;20578;-61
2023/06/14 06:13:10;;;;;;;5.75;4.03;;;39.10;37.60;;;;;;5091537;28;20236;-59
2023/06/14 06:15:38;;;;;;;5.07;3.65;;;39.20;37.40;;;;;;5091190;28;20211;-58
2023/06/14 06:18:05;;;;;;;6.72;3.38;;;39.40;37.50;;;;;;5090697;28;20227;-65
2023/06/14 06:20:31;;;;;;;7.18;3.60;;;39.80;37.00;;;;;;5091075;28;20215;-64
2023/06/14 06:22:58;;;;;;;4.82;3.40;;;39.70;35.60;;;;;;5090034;28;20309;-60
2023/06/14 06:25:26;;;;;;;5.57;3.60;;;39.40;36.20;;;;;;5091018;28;20291;-60
2023/06/14 06:27:53;;;;;;;8.63;3.60;;;39.60;36.20;;;;;;5090936;28;20199;-66
2023/06/14 06:30:20;;;;;;;4.72;3.60;;;38.90;36.70;;;;;;5091050;28;20208;-58
2023/06/14 06:32:48;;;;;;;5.47;3.58;;;38.30;37.20;;;;;;5090526;28;20228;-64
2023/06/14 06:35:15;;;;;;;7.90;3.47;;;37.90;37.20;;;;;;5090757;28;20211;-62
2023/06/14 06:37:43;;;;;;;10.85;3.22;;;36.10;37.70;;;;;;5090084;28;20253;-56
2023/06/14 06:40:10;;;;;;;4.50;3.22;;;34.60;39.20;;;;;;5090489;28;20302;-59
2023/06/14 06:42:37;;;;;;;4.00;3.47;;;33.80;40.30;;;;;;5090844;28;20227;-58
2023/06/14 06:45:05;;;;;;;5.40;2.97;;;34.30;39.80;;;;;;5090928;28;20231;-57
2023/06/14 06:47:31;;;;;;;4.38;3.05;;;35.70;38.20;;;;;;5090867;28;20204;-57
2023/06/14 06:49:59;;;;;;;5.90;2.95;;;37.10;37.10;;;;;;5090813;28;20296;-57
2023/06/14 06:52:26;;;;;;;6.47;3.03;;;38.60;35.80;;;;;;5090699;28;20227;-62
2023/06/14 06:54:54;;;;;;;3.78;2.90;;;39.90;34.40;;;;;;5090842;28;20569;-58
2023/06/14 06:57:22;;;;;;;4.25;2.97;;;41.00;33.20;;;;;;5090619;28;20208;-59
2023/06/14 06:59:49;;;;;;;2.67;2.45;;;41.60;32.70;;;;;;5090615;28;20207;-59
2023/06/14 07:02:16;;;;;;;4.65;2.97;;;41.60;32.40;;;;;;5090690;28;20299;-59
2023/06/14 07:04:42;;;;;;;4.68;3.10;;;41.50;32.80;;;;;;5090213;28;20207;-59
2023/06/14 07:07:10;;;;;;;4.22;2.70;;;41.00;32.70;;;;;;5090249;28;20204;-59
2023/06/14 07:09:37;;;;;;;3.55;2.60;;;40.70;32.90;;;;;;5090684;28;20294;-60
2023/06/14 07:12:05;;;;;;;5.85;2.83;;;40.60;33.30;;;;;;5090950;28;20241;-59
2023/06/14 07:14:31;;;;;;;3.97;3.05;;;40.00;33.40;;;;;;5090756;28;20560;-59
2023/06/14 07:16:58;;;;;;;4.95;2.83;;;39.60;33.80;;;;;;5090786;28;20203;-59
2023/06/14 07:19:25;;;;;;;4.45;2.63;;;39.60;33.80;;;;;;5090806;28;20227;-59
2023/06/14 07:21:52;;;;;;;7.07;2.90;;;39.80;34.00;;;;;;5073910;22;1070016;-62
2023/06/14 07:24:21;;;;;;;6.20;2.72;;;39.70;33.90;;;;;;5078914;28;20197;-60
2023/06/14 07:26:48;;;;;;;4.20;3.15;;;40.40;33.70;;;;;;5050651;28;20225;-60
2023/06/14 07:29:16;;;;;;;4.72;3.00;;;40.00;33.90;;;;;;5050891;28;20224;-61
2023/06/14 07:31:43;;;;;;;6.75;3.03;;;39.90;33.70;;;;;;5050559;28;20276;-62
2023/06/14 07:34:09;;;;;;;6.07;3.08;;;40.80;32.50;;;;;;5052719;28;20212;-62
2023/06/14 07:36:37;;;;;;;3.35;2.53;;;41.50;31.90;;;;;;5053996;28;20213;-61
2023/06/14 07:39:06;;;;;;;3.78;2.58;;;41.30;32.00;;;;;;5053952;28;20229;-62
2023/06/14 07:41:34;;;;;;;3.28;2.75;;;41.80;32.00;;;;;;5053940;28;20205;-62
2023/06/14 07:44:01;;;;;;;5.20;3.17;;;42.80;30.60;;;;;;5054112;28;20343;-61
2023/06/14 07:46:27;;;;;;;4.72;2.92;;;42.80;30.40;;;;;;5053425;28;20200;-61
2023/06/14 07:48:54;;;;;;;7.20;2.33;;;41.90;31.00;;;;;;5053800;28;20232;-60
2023/06/14 07:51:22;;;;;;;3.45;2.78;;;41.40;31.50;;;;;;5054068;28;20211;-61
2023/06/14 07:53:49;;;;;;;3.95;2.90;;;41.20;32.30;;;;;;5053593;28;20216;-61
2023/06/14 07:56:16;;;;;;;7.50;3.30;;;40.00;32.80;;;;;;5053399;28;20212;-61
2023/06/14 07:58:44;;;;;;;6.70;2.80;;;38.70;34.50;;;;;;5053675;28;20225;-61
2023/06/14 08:01:12;;;;;;;3.78;3.30;;;38.50;34.30;;;;;;5053754;28;20204;-61
2023/06/14 08:03:38;;;;;;;7.43;3.40;;;39.10;34.00;;;;;;5053837;28;20336;-60
2023/06/14 08:06:07;;;;;;;5.25;3.00;;;38.60;34.30;;;;;;5053120;28;20205;-61
2023/06/14 08:08:34;;;;;;;5.95;3.17;;;38.20;35.00;;;;;;5053881;28;20288;-61
2023/06/14 08:11:01;;;;;;;7.20;2.92;;;38.20;34.50;;;;;;5053418;28;20270;-60
2023/06/14 08:13:27;;;;;;;4.15;2.80;;;38.30;34.40;;;;;;5053214;28;20233;-61
2023/06/14 08:15:57;;;;;;;3.45;3.15;;;38.80;34.20;;;;;;5053127;28;20205;-62
2023/06/14 08:18:23;;;;;;;8.57;3.30;;;39.10;33.80;;;;;;5053445;28;20312;-61
2023/06/14 08:20:52;;;;;;;4.75;2.95;;;39.30;33.70;;;;;;5053328;28;20205;-62
2023/06/14 08:23:20;;;;;;;7.55;3.10;;;39.30;34.00;;;;;;5053113;28;20229;-61
2023/06/14 08:25:47;;;;;;;4.60;3.00;;;39.20;34.20;;;;;;5053160;28;20206;-62
2023/06/14 08:28:14;;;;;;;3.13;2.70;;;38.80;34.10;;;;;;5053139;28;20198;-62
2023/06/14 08:30:42;;;;;;;4.28;2.88;;;38.00;34.90;;;;;;5053346;28;20220;-62
2023/06/14 08:33:10;;;;;;;3.85;3.10;;;37.70;35.40;;;;;;5053306;28;20619;-61
2023/06/14 08:35:39;;;;;;;5.15;2.67;;;37.70;35.50;;;;;;5052871;28;20785;-62
2023/06/14 08:38:06;;;;;;;3.20;2.80;;;37.60;35.00;;;;;;5053084;28;20363;-61
2023/06/14 08:40:37;;;;;;;7.47;2.97;;;37.20;35.00;;;;;;5053253;28;20205;-62
2023/06/14 08:43:04;;;;;;;3.58;2.70;;;36.80;35.20;;;;;;5053011;28;20236;-61
2023/06/14 08:45:31;;;;;;;3.90;3.17;;;36.20;35.30;;;;;;5052447;28;20210;-62
2023/06/14 08:47:59;;;;;;;6.38;2.90;;;35.80;36.00;;;;;;5052789;28;20317;-64
2023/06/14 08:50:29;;;;;;;10.45;3.10;;;35.10;36.90;;;;;;5053475;28;20304;-61
2023/06/14 08:53:00;;;;;;;5.93;3.15;;;34.10;38.30;;;;;;5052671;28;20225;-61
2023/06/14 08:55:28;;;;;;;4.93;3.25;;;32.80;39.40;;;;;;5052690;28;20612;-62
2023/06/14 08:57:57;;;;;;;5.07;2.97;;;31.10;41.40;;;;;;5052587;28;20259;-61
2023/06/14 09:00:25;;;;;;;5.00;2.97;;;29.70;43.10;;;;;;5052430;28;20589;-61
2023/06/14 09:02:57;;;;;;;8.63;3.13;;;28.50;44.90;;;;;;5052882;28;20233;-60
2023/06/14 09:05:24;;;;;;;7.35;3.30;;;27.40;46.50;;;;;;5052672;28;20671;-61
2023/06/14 09:07:54;;;;;;;5.00;3.35;;;26.60;47.40;;;;;;5052282;28;20815;-62
2023/06/14 09:10:22;;;;;;;6.10;3.10;;;26.20;48.50;;;;;;5052558;28;20218;-62
2023/06/14 09:12:49;;;;;;;4.75;3.30;;;25.80;47.90;;;;;;5052246;28;20226;-61
2023/06/14 09:15:16;;;;;;;3.67;2.90;;;25.60;50.00;;;;;;5052534;28;20662;-61
2023/06/14 09:17:43;;;;;;;4.95;3.58;;;25.40;51.30;;;;;;5051832;28;20629;-61
2023/06/14 09:20:13;;;;;;;5.13;3.47;;;25.30;51.50;;;;;;5052070;28;20632;-59
2023/06/14 09:22:41;;;;;;;3.70;2.95;;;25.20;51.60;;;;;;5062999;28;20811;-63
2023/06/14 09:25:10;;;;;;;9.23;3.28;;;25.10;51.40;;;;;;5072075;28;20299;-60
2023/06/14 09:27:39;;;;;;;4.78;2.78;;;25.20;51.30;;;;;;5071693;28;20208;-59
2023/06/14 09:30:08;;;;;;;5.50;3.47;;;25.10;51.20;;;;;;5072162;28;20258;-63
2023/06/14 09:32:38;;;;;;;4.55;2.90;;;25.10;51.90;;;;;;5071673;28;20229;-59
2023/06/14 09:35:06;;;;;;;5.57;2.85;;;25.10;51.80;;;;;;5071951;28;20713;-59
2023/06/14 09:37:33;;;;;;;5.72;3.28;;;25.00;51.40;;;;;;5071562;28;20618;-60
2023/06/14 09:40:00;;;;;;;8.82;3.13;;;25.10;50.10;;;;;;5071603;28;20759;-62
2023/06/14 09:42:29;;;;;;;5.88;3.30;;;25.30;50.50;;;;;;5071034;28;20710;-61
2023/06/14 09:44:57;;;;;;;6.28;3.10;;;25.30;50.50;;;;;;5071821;28;20235;-62
2023/06/14 09:47:25;;;;;;;3.75;2.90;;;25.50;49.50;;;;;;5061846;28;20224;-62
2023/06/14 09:49:54;;;;;;;6.55;2.95;;;25.60;50.30;;;;;;5069462;28;20197;-61
2023/06/14 09:52:22;;;;;;;5.53;2.80;;;25.90;50.10;;;;;;5071606;28;20283;-62
2023/06/14 09:54:49;;;;;;;4.22;2.97;;;26.10;48.50;;;;;;5071415;28;20209;-63
2023/06/14 09:57:21;;;;;;;3.42;2.95;;;26.20;46.70;;;;;;5070342;28;20211;-61
2023/06/14 09:59:53;;;;;;;5.22;2.60;;;26.30;45.00;;;;;;5071447;28;20221;-60
2023/06/14 10:02:24;;;;;;;11.20;3.40;;;26.20;45.40;;;;;;5070553;28;20228;-61
2023/06/14 10:05:00;;;;;;;3.60;3.08;;;26.40;46.30;;;;;;5071174;28;20243;-62
2023/06/14 10:07:30;;;;;;;8.80;2.65;;;26.70;46.60;;;;;;5070886;28;20208;-61
2023/06/14 10:09:57;;;;;;;3.75;2.72;;;27.00;44.70;;;;;;5071491;28;20209;-61
2023/06/14 10:12:24;;;;;;;6.28;2.95;;;27.10;44.40;;;;;;5070890;28;20759;-62
2023/06/14 10:14:53;;;;;;;3.58;2.80;;;27.20;43.70;;;;;;5070905;28;20212;-63
2023/06/14 10:17:26;;;;;;;4.40;3.10;;;27.20;42.20;;;;;;5070817;28;20211;-61
2023/06/14 10:19:59;;;;;;;10.73;3.03;;;27.00;43.00;;;;;;5070766;28;20225;-62
2023/06/14 10:22:33;;;;;;;7.25;3.20;;;27.00;44.50;;;;;;5071052;28;20236;-63
2023/06/14 10:25:01;;;;;;;4.15;2.90;;;26.80;45.50;;;;;;5071330;28;20310;-62
2023/06/14 10:27:28;;;;;;;7.13;2.90;;;26.70;45.80;;;;;;5070944;28;20250;-64
2023/06/14 10:30:05;;;;;;;5.97;2.60;;;26.70;45.60;;;;;;5071530;28;20246;-61
2023/06/14 10:32:33;;;;;;;4.82;2.83;;;26.90;45.60;;;;;;5070681;28;20753;-62
2023/06/14 10:35:01;;;;;;;5.30;2.60;;;26.90;44.60;;;;;;5070921;28;20208;-62
2023/06/14 10:37:28;;;;;;;4.20;3.13;;;27.10;44.40;;;;;;5070608;28;20205;-62
2023/06/14 10:39:55;;;;;;;4.38;3.13;;;26.80;44.60;;;;;;5071334;28;20235;-62
2023/06/14 10:42:22;;;;;;;7.40;2.85;;;26.70;44.90;;;;;;5070756;28;20229;-61
2023/06/14 10:44:55;;;;;;;4.78;2.85;;;26.60;44.90;;;;;;5070906;28;20201;-61
2023/06/14 10:47:25;;;;;;;5.60;2.72;;;26.70;45.40;;;;;;5070673;28;20257;-61
2023/06/14 10:49:54;;;;;;;7.18;3.30;;;27.00;43.90;;;;;;5070650;28;20204;-59
2023/06/14 10:52:28;;;;;;;4.25;2.60;;;27.20;44.20;;;;;;5071100;28;20231;-61
2023/06/14 10:55:14;;;;;;;4.30;3.00;;;27.50;44.10;;;;;;5071585;28;20207;-61
2023/06/14 10:57:45;;;;;;;4.38;2.75;;;27.40;44.30;;;;;;5070912;28;20279;-63
2023/06/14 11:00:15;;;;;;;4.65;3.08;;;27.00;45.00;;;;;;5070793;28;20225;-61
2023/06/14 11:03:26;;;;;;;4.28;2.95;;;26.70;44.10;;;;;;5070488;28;20298;-60
2023/06/14 11:05:53;;;;;;;5.03;3.00;;;26.30;44.90;;;;;;5071397;28;20205;-61
2023/06/14 11:08:40;;;;;;;3.28;2.75;;;26.20;44.10;;;;;;5072117;28;20204;-65
2023/06/14 11:11:07;;;;;;;6.82;2.85;;;26.20;44.30;;;;;;5074364;28;20216;-61
2023/06/14 11:13:35;;;;;;;3.80;2.65;;;26.40;44.60;;;;;;5074462;28;20229;-60
2023/06/14 11:16:01;;;;;;;2.92;2.60;;;26.60;44.30;;;;;;5072658;28;20589;-60
2023/06/14 11:18:30;;;;;;;3.05;2.75;;;26.70;44.10;;;;;;5074899;28;20205;-59
2023/06/14 11:20:57;;;;;;;5.13;2.70;;;26.80;43.30;;;;;;5073961;28;20200;-58
2023/06/14 11:23:24;;;;;;;4.63;2.72;;;26.90;42.20;;;;;;5075098;28;20243;-62
2023/06/14 11:25:51;;;;;;;3.53;2.85;;;27.40;43.00;;;;;;5074504;28;20735;-62
2023/06/14 11:28:19;;;;;;;6.45;2.50;;;27.80;42.30;;;;;;5073051;28;20654;-66
2023/06/14 11:30:47;;;;;;;3.80;2.70;;;28.00;42.60;;;;;;5074389;28;20254;-63
2023/06/14 11:33:18;;;;;;;5.35;2.70;;;28.00;42.80;;;;;;5074091;28;20328;-64
2023/06/14 11:35:46;;;;;;;6.43;2.95;;;27.90;43.10;;;;;;5074151;28;20232;-61
2023/06/14 11:38:13;;;;;;;4.45;2.90;;;27.90;43.10;;;;;;5074701;28;20690;-60
2023/06/14 11:40:40;;;;;;;3.17;2.80;;;28.00;43.10;;;;;;5075325;28;20232;-62
2023/06/14 11:43:07;;;;;;;3.03;2.35;;;28.20;43.50;;;;;;5074467;28;20235;-62
2023/06/14 11:45:33;;;;;;;5.80;2.70;;;28.30;43.50;;;;;;5072084;28;20209;-60
2023/06/14 11:48:00;;;;;;;6.10;2.50;;;28.30;43.20;;;;;;5072496;28;20216;-60
2023/06/14 11:50:27;;;;;;;5.53;2.70;;;28.40;43.40;;;;;;5073758;28;20205;-62
2023/06/14 11:52:56;;;;;;;6.22;2.90;;;28.40;43.70;;;;;;5074534;28;20233;-60
2023/06/14 11:55:23;;;;;;;7.43;5.80;;;28.20;44.30;;;;;;5074110;28;20201;-61
2023/06/14 11:57:50;;;;;;;6.60;2.80;;;28.00;44.00;;;;;;5073587;28;20208;-60
2023/06/14 12:00:18;;;;;;;4.60;2.72;;;27.80;44.40;;;;;;5073828;28;20232;-60
2023/06/14 12:02:55;;;;;;;3.92;3.17;;;27.70;44.40;;;;;;5073799;28;20229;-61
2023/06/14 12:05:22;;;;;;;4.60;2.70;;;27.60;44.40;;;;;;5073699;28;20361;-61
2023/06/14 12:07:50;;;;;;;8.63;3.00;;;27.50;44.30;;;;;;5073220;28;20338;-61
2023/06/14 12:10:18;;;;;;;4.15;2.75;;;27.40;43.80;;;;;;5072987;28;20208;-67
2023/06/14 12:12:45;;;;;;;3.38;2.58;;;27.50;43.50;;;;;;5073531;28;20237;-61
2023/06/14 12:15:12;;;;;;;4.38;2.92;;;27.60;43.70;;;;;;5072982;28;20209;-62
2023/06/14 12:17:41;;;;;;;6.65;3.08;;;27.70;42.90;;;;;;5072525;28;20685;-62
2023/06/14 12:20:13;;;;;;;4.50;2.70;;;28.10;43.20;;;;;;5072187;28;20221;-62
2023/06/14 12:22:47;;;;;;;6.07;2.80;;;28.40;43.10;;;;;;5071046;28;20239;-62
2023/06/14 12:25:26;;;;;;;5.10;3.25;;;28.70;42.60;;;;;;5072505;28;20205;-62
2023/06/14 12:27:53;;;;;;;4.03;2.47;;;28.70;42.50;;;;;;5072668;28;20227;-62
2023/06/14 12:30:20;;;;;;;5.30;2.80;;;28.70;42.50;;;;;;5073086;28;20204;-61
2023/06/14 12:32:47;;;;;;;4.43;3.03;;;28.70;42.50;;;;;;5073152;28;20279;-63
2023/06/14 12:35:13;;;;;;;4.95;2.90;;;28.90;42.80;;;;;;5073371;28;20205;-62
2023/06/14 12:37:41;;;;;;;5.40;2.67;;;29.20;42.70;;;;;;5072442;28;20209;-62
2023/06/14 12:40:08;;;;;;;3.25;2.70;;;29.50;43.10;;;;;;5072624;28;20232;-62
2023/06/14 12:42:36;;;;;;;6.38;2.80;;;29.30;42.90;;;;;;5072586;28;20228;-64
2023/06/14 12:45:03;;;;;;;5.38;2.80;;;29.10;42.80;;;;;;5072837;28;20279;-63
2023/06/14 12:47:30;;;;;;;5.10;2.63;;;29.10;43.90;;;;;;5072586;28;20625;-61
2023/06/14 12:49:57;;;;;;;5.18;3.03;;;28.90;43.80;;;;;;5072680;28;20718;-62